sensor_id;sensor_type;location;lat;lon;timestamp;P1;durP1;ratioP1;P2;durP2;ratioP2
39098;SDS011;24844;52.380;7.018;2023-06-22T00:00:43;12.90;;;10.90;;
39098;SDS011;24844;52.380;7.018;2023-06-22T00:03:09;12.98;;;11.68;;
39098;SDS011;24844;52.380;7.018;2023-06-22T00:05:35;11.15;;;9.90;;
39098;SDS011;24844;52.380;7.018;2023-06-22T00:08:04;12.98;;;11.57;;
39098;SDS011;24844;52.380;7.018;2023-06-22T00:10:30;15.20;;;12.57;;
39098;SDS011;24844;52.380;7.018;2023-06-22T00:12:56;15.70;;;12.77;;
39098;SDS011;24844;52.380;7.018;2023-06-22T00:15:21;14.25;;;12.30;;
39098;SDS011;24844;52.380;7.018;2023-06-22T00:17:47;13.25;;;11.50;;
39098;SDS011;24844;52.380;7.018;2023-06-22T00:20:12;13.73;;;10.38;;
39098;SDS011;24844;52.380;7.018;2023-06-22T00:22:39;13.63;;;12.20;;
39098;SDS011;24844;52.380;7.018;2023-06-22T00:25:08;15.05;;;11.50;;
39098;SDS011;24844;52.380;7.018;2023-06-22T00:27:34;13.15;;;11.85;;
39098;SDS011;24844;52.380;7.018;2023-06-22T00:30:00;13.85;;;12.45;;
39098;SDS011;24844;52.380;7.018;2023-06-22T00:32:26;17.70;;;12.45;;
39098;SDS011;24844;52.380;7.018;2023-06-22T00:34:51;14.75;;;13.07;;
39098;SDS011;24844;52.380;7.018;2023-06-22T00:37:17;16.17;;;14.02;;
39098;SDS011;24844;52.380;7.018;2023-06-22T00:39:43;14.15;;;12.77;;
39098;SDS011;24844;52.380;7.018;2023-06-22T00:42:09;14.40;;;12.90;;
39098;SDS011;24844;52.380;7.018;2023-06-22T00:44:37;16.58;;;13.73;;
39098;SDS011;24844;52.380;7.018;2023-06-22T00:49:29;19.30;;;15.57;;
39098;SDS011;24844;52.380;7.018;2023-06-22T00:51:57;20.20;;;17.77;;
39098;SDS011;24844;52.380;7.018;2023-06-22T00:54:22;22.85;;;17.95;;
39098;SDS011;24844;52.380;7.018;2023-06-22T00:56:53;18.53;;;16.33;;
39098;SDS011;24844;52.380;7.018;2023-06-22T00:59:21;19.83;;;16.33;;
39098;SDS011;24844;52.380;7.018;2023-06-22T01:01:47;18.33;;;16.13;;
39098;SDS011;24844;52.380;7.018;2023-06-22T01:04:12;25.50;;;19.42;;
39098;SDS011;24844;52.380;7.018;2023-06-22T01:06:41;22.83;;;19.17;;
39098;SDS011;24844;52.380;7.018;2023-06-22T01:09:22;19.75;;;17.25;;
39098;SDS011;24844;52.380;7.018;2023-06-22T01:11:57;21.58;;;19.27;;
39098;SDS011;24844;52.380;7.018;2023-06-22T01:17:11;19.60;;;16.60;;
39098;SDS011;24844;52.380;7.018;2023-06-22T01:19:50;19.42;;;17.40;;
39098;SDS011;24844;52.380;7.018;2023-06-22T01:22:23;20.92;;;18.65;;
39098;SDS011;24844;52.380;7.018;2023-06-22T01:25:00;21.88;;;19.10;;
39098;SDS011;24844;52.380;7.018;2023-06-22T01:30:10;20.60;;;18.27;;
39098;SDS011;24844;52.380;7.018;2023-06-22T01:32:39;19.23;;;17.17;;
39098;SDS011;24844;52.380;7.018;2023-06-22T01:35:08;19.67;;;17.58;;
39098;SDS011;24844;52.380;7.018;2023-06-22T01:37:35;21.15;;;18.92;;
39098;SDS011;24844;52.380;7.018;2023-06-22T01:40:02;21.35;;;18.40;;
39098;SDS011;24844;52.380;7.018;2023-06-22T01:42:31;22.25;;;20.08;;
39098;SDS011;24844;52.380;7.018;2023-06-22T01:44:57;22.05;;;19.75;;
39098;SDS011;24844;52.380;7.018;2023-06-22T01:47:24;20.95;;;18.75;;
39098;SDS011;24844;52.380;7.018;2023-06-22T01:49:50;24.40;;;20.98;;
39098;SDS011;24844;52.380;7.018;2023-06-22T01:52:16;25.70;;;21.17;;
39098;SDS011;24844;52.380;7.018;2023-06-22T01:54:42;25.88;;;22.70;;
39098;SDS011;24844;52.380;7.018;2023-06-22T01:57:08;22.33;;;19.25;;
39098;SDS011;24844;52.380;7.018;2023-06-22T01:59:37;23.77;;;21.05;;
39098;SDS011;24844;52.380;7.018;2023-06-22T02:02:12;26.75;;;21.92;;
39098;SDS011;24844;52.380;7.018;2023-06-22T02:04:48;23.05;;;20.38;;
39098;SDS011;24844;52.380;7.018;2023-06-22T02:07:20;25.85;;;20.95;;
39098;SDS011;24844;52.380;7.018;2023-06-22T02:09:54;26.90;;;22.80;;
39098;SDS011;24844;52.380;7.018;2023-06-22T02:12:23;28.33;;;23.57;;
39098;SDS011;24844;52.380;7.018;2023-06-22T02:14:52;24.85;;;21.98;;
39098;SDS011;24844;52.380;7.018;2023-06-22T02:17:18;26.83;;;23.92;;
39098;SDS011;24844;52.380;7.018;2023-06-22T02:19:44;25.65;;;22.95;;
39098;SDS011;24844;52.380;7.018;2023-06-22T02:22:10;24.17;;;21.58;;
39098;SDS011;24844;52.380;7.018;2023-06-22T02:24:36;31.15;;;24.08;;
39098;SDS011;24844;52.380;7.018;2023-06-22T02:27:02;30.70;;;25.65;;
39098;SDS011;24844;52.380;7.018;2023-06-22T02:29:28;35.33;;;27.67;;
39098;SDS011;24844;52.380;7.018;2023-06-22T02:31:54;31.38;;;26.80;;
39098;SDS011;24844;52.380;7.018;2023-06-22T02:34:21;34.72;;;28.33;;
39098;SDS011;24844;52.380;7.018;2023-06-22T02:36:47;36.08;;;29.85;;
39098;SDS011;24844;52.380;7.018;2023-06-22T02:39:19;44.38;;;33.67;;
39098;SDS011;24844;52.380;7.018;2023-06-22T02:41:47;45.67;;;35.30;;
39098;SDS011;24844;52.380;7.018;2023-06-22T02:44:17;47.35;;;36.50;;
39098;SDS011;24844;52.380;7.018;2023-06-22T02:46:43;50.20;;;36.60;;
39098;SDS011;24844;52.380;7.018;2023-06-22T02:49:09;35.08;;;28.60;;
39098;SDS011;24844;52.380;7.018;2023-06-22T02:51:39;40.75;;;32.88;;
39098;SDS011;24844;52.380;7.018;2023-06-22T02:54:11;35.65;;;31.42;;
39098;SDS011;24844;52.380;7.018;2023-06-22T02:56:37;41.55;;;33.13;;
39098;SDS011;24844;52.380;7.018;2023-06-22T02:59:03;43.28;;;34.88;;
39098;SDS011;24844;52.380;7.018;2023-06-22T03:01:28;44.58;;;34.58;;
39098;SDS011;24844;52.380;7.018;2023-06-22T03:03:58;40.45;;;32.72;;
39098;SDS011;24844;52.380;7.018;2023-06-22T03:06:25;44.88;;;36.00;;
39098;SDS011;24844;52.380;7.018;2023-06-22T03:08:54;35.42;;;30.83;;
39098;SDS011;24844;52.380;7.018;2023-06-22T03:11:24;50.75;;;39.08;;
39098;SDS011;24844;52.380;7.018;2023-06-22T03:13:49;45.90;;;37.38;;
39098;SDS011;24844;52.380;7.018;2023-06-22T03:16:17;54.78;;;41.13;;
39098;SDS011;24844;52.380;7.018;2023-06-22T03:18:42;50.60;;;40.00;;
39098;SDS011;24844;52.380;7.018;2023-06-22T03:21:08;40.70;;;33.30;;
39098;SDS011;24844;52.380;7.018;2023-06-22T03:23:34;60.75;;;45.05;;
39098;SDS011;24844;52.380;7.018;2023-06-22T03:26:00;54.63;;;43.28;;
39098;SDS011;24844;52.380;7.018;2023-06-22T03:28:26;43.88;;;34.85;;
39098;SDS011;24844;52.380;7.018;2023-06-22T03:30:51;45.67;;;37.90;;
39098;SDS011;24844;52.380;7.018;2023-06-22T03:33:17;49.85;;;39.45;;
39098;SDS011;24844;52.380;7.018;2023-06-22T03:35:42;40.30;;;33.30;;
39098;SDS011;24844;52.380;7.018;2023-06-22T03:38:08;54.05;;;43.42;;
39098;SDS011;24844;52.380;7.018;2023-06-22T03:40:34;54.72;;;43.40;;
39098;SDS011;24844;52.380;7.018;2023-06-22T03:42:59;43.13;;;35.75;;
39098;SDS011;24844;52.380;7.018;2023-06-22T03:45:25;49.83;;;40.10;;
39098;SDS011;24844;52.380;7.018;2023-06-22T03:47:50;44.53;;;35.97;;
39098;SDS011;24844;52.380;7.018;2023-06-22T03:50:16;46.60;;;36.50;;
39098;SDS011;24844;52.380;7.018;2023-06-22T03:52:42;43.05;;;33.85;;
39098;SDS011;24844;52.380;7.018;2023-06-22T03:55:07;57.55;;;43.47;;
39098;SDS011;24844;52.380;7.018;2023-06-22T03:57:33;54.85;;;43.10;;
39098;SDS011;24844;52.380;7.018;2023-06-22T03:59:59;47.05;;;38.15;;
39098;SDS011;24844;52.380;7.018;2023-06-22T04:02:27;50.70;;;41.35;;
39098;SDS011;24844;52.380;7.018;2023-06-22T04:04:53;41.47;;;34.20;;
39098;SDS011;24844;52.380;7.018;2023-06-22T04:07:19;49.25;;;38.53;;
39098;SDS011;24844;52.380;7.018;2023-06-22T04:09:44;47.67;;;38.88;;
39098;SDS011;24844;52.380;7.018;2023-06-22T04:12:10;47.42;;;40.58;;
39098;SDS011;24844;52.380;7.018;2023-06-22T04:14:35;47.15;;;37.35;;
39098;SDS011;24844;52.380;7.018;2023-06-22T04:17:01;50.78;;;37.72;;
39098;SDS011;24844;52.380;7.018;2023-06-22T04:19:27;46.70;;;37.55;;
39098;SDS011;24844;52.380;7.018;2023-06-22T04:21:52;46.08;;;36.08;;
39098;SDS011;24844;52.380;7.018;2023-06-22T04:24:18;51.53;;;39.03;;
39098;SDS011;24844;52.380;7.018;2023-06-22T04:26:43;38.60;;;32.13;;
39098;SDS011;24844;52.380;7.018;2023-06-22T04:29:10;39.22;;;33.55;;
39098;SDS011;24844;52.380;7.018;2023-06-22T04:31:37;43.95;;;35.05;;
39098;SDS011;24844;52.380;7.018;2023-06-22T04:34:06;38.60;;;31.70;;
39098;SDS011;24844;52.380;7.018;2023-06-22T04:36:39;35.63;;;27.23;;
39098;SDS011;24844;52.380;7.018;2023-06-22T04:39:06;38.70;;;33.58;;
39098;SDS011;24844;52.380;7.018;2023-06-22T04:41:34;33.28;;;29.23;;
39098;SDS011;24844;52.380;7.018;2023-06-22T04:44:40;35.45;;;29.70;;
39098;SDS011;24844;52.380;7.018;2023-06-22T04:47:00;36.60;;;29.10;;
39098;SDS011;24844;52.380;7.018;2023-06-22T04:49:28;35.00;;;29.70;;
39098;SDS011;24844;52.380;7.018;2023-06-22T04:52:00;33.53;;;28.55;;
39098;SDS011;24844;52.380;7.018;2023-06-22T04:54:26;38.10;;;30.20;;
39098;SDS011;24844;52.380;7.018;2023-06-22T04:56:52;39.35;;;30.60;;
39098;SDS011;24844;52.380;7.018;2023-06-22T04:59:24;35.33;;;28.95;;
39098;SDS011;24844;52.380;7.018;2023-06-22T05:01:53;39.33;;;30.13;;
39098;SDS011;24844;52.380;7.018;2023-06-22T05:04:19;32.38;;;26.85;;
39098;SDS011;24844;52.380;7.018;2023-06-22T05:06:45;32.20;;;26.30;;
39098;SDS011;24844;52.380;7.018;2023-06-22T05:09:11;32.42;;;23.65;;
39098;SDS011;24844;52.380;7.018;2023-06-22T05:11:37;26.70;;;22.73;;
39098;SDS011;24844;52.380;7.018;2023-06-22T05:14:03;27.05;;;22.70;;
39098;SDS011;24844;52.380;7.018;2023-06-22T05:16:28;28.75;;;23.10;;
39098;SDS011;24844;52.380;7.018;2023-06-22T05:18:54;25.33;;;21.88;;
39098;SDS011;24844;52.380;7.018;2023-06-22T05:21:25;22.48;;;19.67;;
39098;SDS011;24844;52.380;7.018;2023-06-22T05:23:52;21.42;;;18.58;;
39098;SDS011;24844;52.380;7.018;2023-06-22T05:26:21;24.00;;;19.30;;
39098;SDS011;24844;52.380;7.018;2023-06-22T05:28:47;30.65;;;18.50;;
39098;SDS011;24844;52.380;7.018;2023-06-22T05:31:13;22.00;;;18.63;;
39098;SDS011;24844;52.380;7.018;2023-06-22T05:33:41;16.95;;;14.75;;
39098;SDS011;24844;52.380;7.018;2023-06-22T05:36:07;23.70;;;17.88;;
39098;SDS011;24844;52.380;7.018;2023-06-22T05:38:33;20.80;;;18.52;;
39098;SDS011;24844;52.380;7.018;2023-06-22T05:41:00;18.65;;;16.02;;
39098;SDS011;24844;52.380;7.018;2023-06-22T05:43:26;22.58;;;17.45;;
39098;SDS011;24844;52.380;7.018;2023-06-22T05:45:54;19.08;;;14.45;;
39098;SDS011;24844;52.380;7.018;2023-06-22T05:48:19;20.77;;;16.23;;
39098;SDS011;24844;52.380;7.018;2023-06-22T05:50:45;16.50;;;14.13;;
39098;SDS011;24844;52.380;7.018;2023-06-22T05:53:11;17.35;;;14.65;;
39098;SDS011;24844;52.380;7.018;2023-06-22T05:55:36;17.67;;;13.63;;
39098;SDS011;24844;52.380;7.018;2023-06-22T05:58:02;13.65;;;11.43;;
39098;SDS011;24844;52.380;7.018;2023-06-22T06:00:31;20.63;;;14.95;;
39098;SDS011;24844;52.380;7.018;2023-06-22T06:02:57;16.63;;;13.98;;
39098;SDS011;24844;52.380;7.018;2023-06-22T06:05:28;14.82;;;13.25;;
39098;SDS011;24844;52.380;7.018;2023-06-22T06:07:55;14.32;;;12.48;;
39098;SDS011;24844;52.380;7.018;2023-06-22T06:10:20;18.58;;;14.70;;
39098;SDS011;24844;52.380;7.018;2023-06-22T06:12:46;15.90;;;12.50;;
39098;SDS011;24844;52.380;7.018;2023-06-22T06:15:11;13.93;;;12.18;;
39098;SDS011;24844;52.380;7.018;2023-06-22T06:17:50;13.35;;;11.95;;
39098;SDS011;24844;52.380;7.018;2023-06-22T06:20:21;20.73;;;13.18;;
39098;SDS011;24844;52.380;7.018;2023-06-22T06:22:48;12.73;;;11.25;;
39098;SDS011;24844;52.380;7.018;2023-06-22T06:25:14;14.65;;;12.75;;
39098;SDS011;24844;52.380;7.018;2023-06-22T06:27:44;11.75;;;10.43;;
39098;SDS011;24844;52.380;7.018;2023-06-22T06:30:11;15.13;;;11.85;;
39098;SDS011;24844;52.380;7.018;2023-06-22T06:32:39;12.80;;;11.18;;
39098;SDS011;24844;52.380;7.018;2023-06-22T06:35:05;12.88;;;10.65;;
39098;SDS011;24844;52.380;7.018;2023-06-22T06:37:35;14.45;;;10.15;;
39098;SDS011;24844;52.380;7.018;2023-06-22T06:40:03;12.00;;;9.98;;
39098;SDS011;24844;52.380;7.018;2023-06-22T06:42:30;13.32;;;10.88;;
39098;SDS011;24844;52.380;7.018;2023-06-22T06:44:56;11.73;;;9.55;;
39098;SDS011;24844;52.380;7.018;2023-06-22T06:47:22;11.52;;;8.68;;
39098;SDS011;24844;52.380;7.018;2023-06-22T06:49:47;10.35;;;8.13;;
39098;SDS011;24844;52.380;7.018;2023-06-22T06:52:13;8.88;;;6.90;;
39098;SDS011;24844;52.380;7.018;2023-06-22T06:54:39;12.13;;;8.30;;
39098;SDS011;24844;52.380;7.018;2023-06-22T06:57:04;8.18;;;5.95;;
39098;SDS011;24844;52.380;7.018;2023-06-22T06:59:30;7.88;;;6.10;;
39098;SDS011;24844;52.380;7.018;2023-06-22T07:01:55;9.18;;;6.93;;
39098;SDS011;24844;52.380;7.018;2023-06-22T07:04:21;8.85;;;6.10;;
39098;SDS011;24844;52.380;7.018;2023-06-22T07:06:47;9.20;;;6.38;;
39098;SDS011;24844;52.380;7.018;2023-06-22T07:09:12;7.32;;;5.93;;
39098;SDS011;24844;52.380;7.018;2023-06-22T07:11:38;7.18;;;5.43;;
39098;SDS011;24844;52.380;7.018;2023-06-22T07:14:03;10.57;;;5.82;;
39098;SDS011;24844;52.380;7.018;2023-06-22T07:16:29;6.53;;;4.95;;
39098;SDS011;24844;52.380;7.018;2023-06-22T07:18:56;10.38;;;4.85;;
39098;SDS011;24844;52.380;7.018;2023-06-22T07:21:22;6.95;;;4.85;;
39098;SDS011;24844;52.380;7.018;2023-06-22T07:23:47;7.57;;;4.95;;
39098;SDS011;24844;52.380;7.018;2023-06-22T07:26:13;8.38;;;5.00;;
39098;SDS011;24844;52.380;7.018;2023-06-22T07:28:38;8.75;;;4.88;;
39098;SDS011;24844;52.380;7.018;2023-06-22T07:31:05;6.43;;;4.50;;
39098;SDS011;24844;52.380;7.018;2023-06-22T07:33:31;5.57;;;4.65;;
39098;SDS011;24844;52.380;7.018;2023-06-22T07:35:57;5.47;;;4.55;;
39098;SDS011;24844;52.380;7.018;2023-06-22T07:38:22;7.13;;;4.60;;
39098;SDS011;24844;52.380;7.018;2023-06-22T07:40:48;7.60;;;4.40;;
39098;SDS011;24844;52.380;7.018;2023-06-22T07:43:15;5.63;;;4.82;;
39098;SDS011;24844;52.380;7.018;2023-06-22T07:45:43;5.40;;;4.57;;
39098;SDS011;24844;52.380;7.018;2023-06-22T07:48:17;5.95;;;4.30;;
39098;SDS011;24844;52.380;7.018;2023-06-22T07:50:44;4.63;;;3.72;;
39098;SDS011;24844;52.380;7.018;2023-06-22T07:53:10;6.00;;;4.25;;
39098;SDS011;24844;52.380;7.018;2023-06-22T07:55:36;6.03;;;3.75;;
39098;SDS011;24844;52.380;7.018;2023-06-22T07:58:01;5.55;;;3.53;;
39098;SDS011;24844;52.380;7.018;2023-06-22T08:00:27;6.70;;;4.32;;
39098;SDS011;24844;52.380;7.018;2023-06-22T08:02:52;5.32;;;4.00;;
39098;SDS011;24844;52.380;7.018;2023-06-22T08:05:18;6.47;;;3.83;;
39098;SDS011;24844;52.380;7.018;2023-06-22T08:07:44;5.57;;;4.97;;
39098;SDS011;24844;52.380;7.018;2023-06-22T08:10:10;3.55;;;3.17;;
39098;SDS011;24844;52.380;7.018;2023-06-22T08:12:36;7.32;;;5.22;;
39098;SDS011;24844;52.380;7.018;2023-06-22T08:15:02;5.65;;;4.20;;
39098;SDS011;24844;52.380;7.018;2023-06-22T08:17:28;4.63;;;3.45;;
39098;SDS011;24844;52.380;7.018;2023-06-22T08:19:54;4.13;;;3.65;;
39098;SDS011;24844;52.380;7.018;2023-06-22T08:22:19;7.70;;;4.82;;
39098;SDS011;24844;52.380;7.018;2023-06-22T08:24:45;7.30;;;3.50;;
39098;SDS011;24844;52.380;7.018;2023-06-22T08:27:11;4.03;;;3.63;;
39098;SDS011;24844;52.380;7.018;2023-06-22T08:29:38;7.13;;;4.65;;
39098;SDS011;24844;52.380;7.018;2023-06-22T08:32:04;7.15;;;4.45;;
39098;SDS011;24844;52.380;7.018;2023-06-22T08:34:30;4.80;;;4.30;;
39098;SDS011;24844;52.380;7.018;2023-06-22T08:36:56;9.35;;;4.85;;
39098;SDS011;24844;52.380;7.018;2023-06-22T08:39:21;5.90;;;3.60;;
39098;SDS011;24844;52.380;7.018;2023-06-22T08:41:47;4.88;;;3.42;;
39098;SDS011;24844;52.380;7.018;2023-06-22T08:44:13;6.20;;;4.72;;
39098;SDS011;24844;52.380;7.018;2023-06-22T08:46:39;4.82;;;3.70;;
39098;SDS011;24844;52.380;7.018;2023-06-22T08:49:06;9.98;;;6.10;;
39098;SDS011;24844;52.380;7.018;2023-06-22T08:51:32;7.45;;;4.30;;
39098;SDS011;24844;52.380;7.018;2023-06-22T08:53:57;5.30;;;4.03;;
39098;SDS011;24844;52.380;7.018;2023-06-22T08:56:25;5.80;;;4.60;;
39098;SDS011;24844;52.380;7.018;2023-06-22T08:58:51;5.53;;;4.53;;
39098;SDS011;24844;52.380;7.018;2023-06-22T09:01:16;6.35;;;4.70;;
39098;SDS011;24844;52.380;7.018;2023-06-22T09:03:42;7.45;;;4.75;;
39098;SDS011;24844;52.380;7.018;2023-06-22T09:06:07;4.63;;;3.63;;
39098;SDS011;24844;52.380;7.018;2023-06-22T09:08:36;8.10;;;5.53;;
39098;SDS011;24844;52.380;7.018;2023-06-22T09:11:01;5.10;;;4.13;;
39098;SDS011;24844;52.380;7.018;2023-06-22T09:13:30;8.13;;;5.82;;
39098;SDS011;24844;52.380;7.018;2023-06-22T09:15:56;7.30;;;5.78;;
39098;SDS011;24844;52.380;7.018;2023-06-22T09:18:22;7.35;;;5.90;;
39098;SDS011;24844;52.380;7.018;2023-06-22T09:20:47;7.72;;;5.25;;
39098;SDS011;24844;52.380;7.018;2023-06-22T09:23:14;7.47;;;4.80;;
39098;SDS011;24844;52.380;7.018;2023-06-22T09:25:39;6.03;;;4.45;;
39098;SDS011;24844;52.380;7.018;2023-06-22T09:28:07;7.65;;;5.20;;
39098;SDS011;24844;52.380;7.018;2023-06-22T09:30:33;6.63;;;4.85;;
39098;SDS011;24844;52.380;7.018;2023-06-22T09:32:58;7.80;;;5.53;;
39098;SDS011;24844;52.380;7.018;2023-06-22T09:35:26;6.03;;;3.78;;
39098;SDS011;24844;52.380;7.018;2023-06-22T09:37:51;7.78;;;5.50;;
39098;SDS011;24844;52.380;7.018;2023-06-22T09:40:17;6.93;;;4.82;;
39098;SDS011;24844;52.380;7.018;2023-06-22T09:42:43;5.95;;;5.28;;
39098;SDS011;24844;52.380;7.018;2023-06-22T09:45:08;4.93;;;4.43;;
39098;SDS011;24844;52.380;7.018;2023-06-22T09:47:34;6.90;;;5.07;;
39098;SDS011;24844;52.380;7.018;2023-06-22T09:50:00;8.20;;;5.80;;
39098;SDS011;24844;52.380;7.018;2023-06-22T09:52:25;6.88;;;5.60;;
39098;SDS011;24844;52.380;7.018;2023-06-22T09:54:51;8.02;;;5.72;;
39098;SDS011;24844;52.380;7.018;2023-06-22T09:57:17;11.77;;;5.60;;
39098;SDS011;24844;52.380;7.018;2023-06-22T09:59:42;9.35;;;5.60;;
39098;SDS011;24844;52.380;7.018;2023-06-22T10:02:08;9.15;;;6.10;;
39098;SDS011;24844;52.380;7.018;2023-06-22T10:04:34;8.05;;;5.80;;
39098;SDS011;24844;52.380;7.018;2023-06-22T10:07:00;8.80;;;5.40;;
39098;SDS011;24844;52.380;7.018;2023-06-22T10:09:27;6.55;;;5.65;;
39098;SDS011;24844;52.380;7.018;2023-06-22T10:11:52;6.45;;;4.90;;
39098;SDS011;24844;52.380;7.018;2023-06-22T10:14:18;5.82;;;5.22;;
39098;SDS011;24844;52.380;7.018;2023-06-22T10:16:44;6.32;;;5.22;;
39098;SDS011;24844;52.380;7.018;2023-06-22T10:19:09;8.65;;;6.22;;
39098;SDS011;24844;52.380;7.018;2023-06-22T10:21:35;6.35;;;5.38;;
39098;SDS011;24844;52.380;7.018;2023-06-22T10:24:01;9.07;;;5.75;;
39098;SDS011;24844;52.380;7.018;2023-06-22T10:26:31;6.72;;;5.30;;
39098;SDS011;24844;52.380;7.018;2023-06-22T10:28:57;8.70;;;5.47;;
39098;SDS011;24844;52.380;7.018;2023-06-22T10:31:23;7.53;;;5.57;;
39098;SDS011;24844;52.380;7.018;2023-06-22T10:33:49;6.82;;;5.68;;
39098;SDS011;24844;52.380;7.018;2023-06-22T10:36:14;7.22;;;5.40;;
39098;SDS011;24844;52.380;7.018;2023-06-22T10:38:40;6.53;;;5.75;;
39098;SDS011;24844;52.380;7.018;2023-06-22T10:41:06;5.85;;;5.22;;
39098;SDS011;24844;52.380;7.018;2023-06-22T10:43:31;6.20;;;5.45;;
39098;SDS011;24844;52.380;7.018;2023-06-22T10:45:57;9.23;;;5.22;;
39098;SDS011;24844;52.380;7.018;2023-06-22T10:48:23;7.68;;;6.60;;
39098;SDS011;24844;52.380;7.018;2023-06-22T10:50:48;7.85;;;5.68;;
39098;SDS011;24844;52.380;7.018;2023-06-22T10:53:14;5.90;;;5.30;;
39098;SDS011;24844;52.380;7.018;2023-06-22T10:55:40;9.20;;;6.25;;
39098;SDS011;24844;52.380;7.018;2023-06-22T10:58:05;8.35;;;6.78;;
39098;SDS011;24844;52.380;7.018;2023-06-22T11:00:31;7.38;;;6.47;;
39098;SDS011;24844;52.380;7.018;2023-06-22T11:02:57;8.35;;;5.95;;
39098;SDS011;24844;52.380;7.018;2023-06-22T11:05:23;7.95;;;6.38;;
39098;SDS011;24844;52.380;7.018;2023-06-22T11:07:49;8.43;;;6.85;;
39098;SDS011;24844;52.380;7.018;2023-06-22T11:10:15;12.18;;;7.53;;
39098;SDS011;24844;52.380;7.018;2023-06-22T11:12:41;10.48;;;7.47;;
39098;SDS011;24844;52.380;7.018;2023-06-22T11:15:07;8.73;;;6.57;;
39098;SDS011;24844;52.380;7.018;2023-06-22T11:17:34;9.07;;;7.93;;
39098;SDS011;24844;52.380;7.018;2023-06-22T11:20:00;8.30;;;7.20;;
39098;SDS011;24844;52.380;7.018;2023-06-22T11:22:26;11.13;;;7.43;;
39098;SDS011;24844;52.380;7.018;2023-06-22T11:24:52;9.95;;;7.43;;
39098;SDS011;24844;52.380;7.018;2023-06-22T11:27:18;8.30;;;7.28;;
39098;SDS011;24844;52.380;7.018;2023-06-22T11:29:43;11.10;;;6.60;;
39098;SDS011;24844;52.380;7.018;2023-06-22T11:32:09;12.48;;;7.13;;
39098;SDS011;24844;52.380;7.018;2023-06-22T11:34:35;11.02;;;6.82;;
39098;SDS011;24844;52.380;7.018;2023-06-22T11:37:00;9.25;;;7.32;;
39098;SDS011;24844;52.380;7.018;2023-06-22T11:39:26;8.77;;;6.78;;
39098;SDS011;24844;52.380;7.018;2023-06-22T11:41:52;7.38;;;6.28;;
39098;SDS011;24844;52.380;7.018;2023-06-22T11:44:18;9.60;;;7.75;;
39098;SDS011;24844;52.380;7.018;2023-06-22T11:46:44;8.38;;;7.38;;
39098;SDS011;24844;52.380;7.018;2023-06-22T11:49:09;10.90;;;8.60;;
39098;SDS011;24844;52.380;7.018;2023-06-22T11:51:35;9.50;;;8.40;;
39098;SDS011;24844;52.380;7.018;2023-06-22T11:54:01;10.60;;;9.13;;
39098;SDS011;24844;52.380;7.018;2023-06-22T11:56:28;8.00;;;5.82;;
39098;SDS011;24844;52.380;7.018;2023-06-22T11:58:54;9.38;;;7.75;;
39098;SDS011;24844;52.380;7.018;2023-06-22T12:01:20;11.60;;;9.15;;
39098;SDS011;24844;52.380;7.018;2023-06-22T12:03:46;12.90;;;9.27;;
39098;SDS011;24844;52.380;7.018;2023-06-22T12:06:13;11.30;;;8.55;;
39098;SDS011;24844;52.380;7.018;2023-06-22T12:08:38;8.00;;;7.20;;
39098;SDS011;24844;52.380;7.018;2023-06-22T12:11:05;9.52;;;8.48;;
39098;SDS011;24844;52.380;7.018;2023-06-22T12:13:31;11.20;;;8.00;;
39098;SDS011;24844;52.380;7.018;2023-06-22T12:15:57;9.95;;;8.45;;
39098;SDS011;24844;52.380;7.018;2023-06-22T12:18:22;9.40;;;8.30;;
39098;SDS011;24844;52.380;7.018;2023-06-22T12:20:48;13.25;;;8.38;;
39098;SDS011;24844;52.380;7.018;2023-06-22T12:23:14;9.57;;;8.60;;
39098;SDS011;24844;52.380;7.018;2023-06-22T12:25:40;10.95;;;8.88;;
39098;SDS011;24844;52.380;7.018;2023-06-22T12:28:05;9.45;;;8.48;;
39098;SDS011;24844;52.380;7.018;2023-06-22T12:30:34;12.35;;;9.25;;
39098;SDS011;24844;52.380;7.018;2023-06-22T12:33:00;11.93;;;9.75;;
39098;SDS011;24844;52.380;7.018;2023-06-22T12:35:25;10.13;;;8.48;;
39098;SDS011;24844;52.380;7.018;2023-06-22T12:37:51;9.35;;;8.02;;
39098;SDS011;24844;52.380;7.018;2023-06-22T12:40:16;9.90;;;7.43;;
39098;SDS011;24844;52.380;7.018;2023-06-22T12:42:42;10.57;;;7.93;;
39098;SDS011;24844;52.380;7.018;2023-06-22T12:45:08;11.07;;;8.50;;
39098;SDS011;24844;52.380;7.018;2023-06-22T12:47:34;10.13;;;7.18;;
39098;SDS011;24844;52.380;7.018;2023-06-22T12:50:00;11.30;;;7.35;;
39098;SDS011;24844;52.380;7.018;2023-06-22T12:52:25;9.82;;;8.15;;
39098;SDS011;24844;52.380;7.018;2023-06-22T12:54:51;8.48;;;7.55;;
39098;SDS011;24844;52.380;7.018;2023-06-22T12:57:17;11.55;;;7.30;;
39098;SDS011;24844;52.380;7.018;2023-06-22T12:59:44;9.93;;;8.43;;
39098;SDS011;24844;52.380;7.018;2023-06-22T13:02:10;9.63;;;8.63;;
39098;SDS011;24844;52.380;7.018;2023-06-22T13:04:36;11.45;;;8.27;;
39098;SDS011;24844;52.380;7.018;2023-06-22T13:07:03;10.00;;;7.70;;
39098;SDS011;24844;52.380;7.018;2023-06-22T13:09:29;10.10;;;8.60;;
39098;SDS011;24844;52.380;7.018;2023-06-22T13:11:56;11.02;;;9.68;;
39098;SDS011;24844;52.380;7.018;2023-06-22T13:14:21;9.40;;;8.27;;
39098;SDS011;24844;52.380;7.018;2023-06-22T13:16:47;12.27;;;10.00;;
39098;SDS011;24844;52.380;7.018;2023-06-22T13:19:13;10.25;;;9.15;;
39098;SDS011;24844;52.380;7.018;2023-06-22T13:21:39;14.38;;;11.45;;
39098;SDS011;24844;52.380;7.018;2023-06-22T13:24:05;15.05;;;12.27;;
39098;SDS011;24844;52.380;7.018;2023-06-22T13:26:31;13.82;;;12.18;;
39098;SDS011;24844;52.380;7.018;2023-06-22T13:28:57;13.07;;;11.13;;
39098;SDS011;24844;52.380;7.018;2023-06-22T13:31:23;14.27;;;10.80;;
39098;SDS011;24844;52.380;7.018;2023-06-22T13:33:48;13.38;;;11.68;;
39098;SDS011;24844;52.380;7.018;2023-06-22T13:38:43;16.15;;;11.98;;
39098;SDS011;24844;52.380;7.018;2023-06-22T13:41:08;14.88;;;13.32;;
39098;SDS011;24844;52.380;7.018;2023-06-22T13:43:34;16.85;;;13.02;;
39098;SDS011;24844;52.380;7.018;2023-06-22T13:45:59;15.32;;;11.38;;
39098;SDS011;24844;52.380;7.018;2023-06-22T13:48:25;13.50;;;11.88;;
39098;SDS011;24844;52.380;7.018;2023-06-22T13:50:51;18.67;;;15.35;;
39098;SDS011;24844;52.380;7.018;2023-06-22T13:53:17;17.60;;;15.35;;
39098;SDS011;24844;52.380;7.018;2023-06-22T13:55:43;17.10;;;12.57;;
39098;SDS011;24844;52.380;7.018;2023-06-22T13:58:08;19.33;;;15.63;;
39098;SDS011;24844;52.380;7.018;2023-06-22T14:00:34;17.55;;;14.82;;
39098;SDS011;24844;52.380;7.018;2023-06-22T14:02:59;17.85;;;15.20;;
39098;SDS011;24844;52.380;7.018;2023-06-22T14:05:25;21.73;;;16.08;;
39098;SDS011;24844;52.380;7.018;2023-06-22T14:07:51;22.15;;;16.92;;
39098;SDS011;24844;52.380;7.018;2023-06-22T14:10:17;20.35;;;16.23;;
39098;SDS011;24844;52.380;7.018;2023-06-22T14:12:43;23.85;;;17.52;;
39098;SDS011;24844;52.380;7.018;2023-06-22T14:15:09;26.15;;;16.88;;
39098;SDS011;24844;52.380;7.018;2023-06-22T14:17:35;17.50;;;15.57;;
39098;SDS011;24844;52.380;7.018;2023-06-22T14:20:01;21.52;;;17.55;;
39098;SDS011;24844;52.380;7.018;2023-06-22T14:22:27;19.42;;;16.27;;
39098;SDS011;24844;52.380;7.018;2023-06-22T14:24:54;18.43;;;16.20;;
39098;SDS011;24844;52.380;7.018;2023-06-22T14:27:22;21.35;;;16.55;;
39098;SDS011;24844;52.380;7.018;2023-06-22T14:29:48;20.15;;;17.13;;
39098;SDS011;24844;52.380;7.018;2023-06-22T14:32:13;21.73;;;17.58;;
39098;SDS011;24844;52.380;7.018;2023-06-22T14:34:39;21.02;;;16.60;;
39098;SDS011;24844;52.380;7.018;2023-06-22T14:37:06;22.35;;;19.30;;
39098;SDS011;24844;52.380;7.018;2023-06-22T14:39:32;18.08;;;16.15;;